Time;durP1;ratioP1;P1;durP2;ratioP2;P2;SDS_P1;SDS_P2;PMS_P1;PMS_P2;Temp;Humidity;BMP_temperature;BMP_pressure;BME280_temperature;BME280_humidity;BME280_pressure;Samples;Min_cycle;Max_cycle;Signal;HPM_P1;HPM_P2
2024/02/23 00:01:14;;;;;;;9.20;6.80;;;;;;;5.25;76.28;99376.73;105654;1260;71291;-71
2024/02/23 00:03:42;;;;;;;6.10;5.10;;;;;;;5.21;76.16;99372.48;105520;1260;59769;-74
2024/02/23 00:06:10;;;;;;;7.50;5.60;;;;;;;5.14;76.50;99373.55;105625;1262;60020;-74
2024/02/23 00:08:37;;;;;;;6.20;5.30;;;;;;;5.08;76.55;99365.14;105924;1261;73770;-75
2024/02/23 00:11:05;;;;;;;7.20;5.20;;;;;;;5.11;76.75;99358.96;105637;1257;68954;-75
2024/02/23 00:13:33;;;;;;;7.70;5.60;;;;;;;5.12;76.69;99373.59;105633;1262;72470;-75
2024/02/23 00:16:01;;;;;;;7.40;5.40;;;;;;;5.08;76.58;99365.75;106896;1256;59705;-74
2024/02/23 00:18:28;;;;;;;10.10;6.40;;;;;;;5.01;76.79;99350.05;108328;1256;60954;-73
2024/02/23 00:20:56;;;;;;;8.10;5.50;;;;;;;4.95;77.01;99352.86;106666;1257;71934;-74
2024/02/23 00:23:24;;;;;;;5.90;4.40;;;;;;;4.98;77.27;99352.60;105588;1262;69476;-75
2024/02/23 00:25:51;;;;;;;8.20;5.40;;;;;;;5.00;76.84;99364.02;105522;1257;72522;-77
2024/02/23 00:28:19;;;;;;;8.10;5.50;;;;;;;4.95;77.07;99350.45;105590;1257;60227;-77
2024/02/23 00:30:46;;;;;;;6.70;5.40;;;;;;;4.89;77.27;99344.32;105877;1257;59700;-75
2024/02/23 00:33:14;;;;;;;8.70;5.10;;;;;;;4.83;77.47;99347.16;105815;1255;71317;-76
2024/02/23 00:35:41;;;;;;;6.50;4.80;;;;;;;4.83;77.56;99346.59;106153;1261;70057;-75
2024/02/23 00:38:09;;;;;;;6.70;5.10;;;;;;;4.88;77.72;99350.58;105709;1257;72750;-76
2024/02/23 00:40:37;;;;;;;9.90;5.60;;;;;;;4.86;77.83;99354.02;105603;1256;60275;-77
2024/02/23 00:43:05;;;;;;;8.30;5.70;;;;;;;4.81;77.66;99341.52;105660;1257;62097;-76
2024/02/23 00:45:33;;;;;;;8.90;5.50;;;;;;;4.76;78.00;99346.74;105631;1262;72791;-76
2024/02/23 00:48:01;;;;;;;9.20;6.30;;;;;;;4.72;78.20;99346.69;105655;1256;70194;-76
2024/02/23 00:50:28;;;;;;;11.10;5.20;;;;;;;4.73;78.40;99339.94;105553;1256;72505;-77
2024/02/23 00:52:56;;;;;;;8.90;5.80;;;;;;;4.78;78.11;99352.57;105504;1262;59684;-74
2024/02/23 00:55:25;;;;;;;8.40;5.80;;;;;;;4.74;78.19;99340.73;105501;1256;60183;-76
2024/02/23 00:57:52;;;;;;;6.70;5.20;;;;;;;4.69;78.76;99348.78;105658;1257;73070;-75
2024/02/23 01:00:20;;;;;;;8.00;5.90;;;;;;;4.63;78.81;99346.34;105788;1257;69067;-75
2024/02/23 01:02:47;;;;;;;8.70;5.80;;;;;;;4.64;78.92;99342.02;105998;1257;71473;-76
2024/02/23 01:05:15;;;;;;;10.10;6.00;;;;;;;4.67;78.61;99349.27;105853;1257;59726;-77
2024/02/23 01:07:42;;;;;;;7.70;5.60;;;;;;;4.63;79.07;99360.41;106981;1258;60101;-74
2024/02/23 01:10:12;;;;;;;7.50;5.40;;;;;;;4.58;78.99;99347.48;108486;1256;73430;-74
2024/02/23 01:12:39;;;;;;;8.50;5.10;;;;;;;4.58;79.29;99362.60;106940;1256;69081;-76
2024/02/23 01:15:07;;;;;;;7.30;4.80;;;;;;;4.64;79.08;99345.92;105768;1260;72671;-78
2024/02/23 01:17:34;;;;;;;7.80;5.70;;;;;;;4.60;79.19;99355.73;107789;1262;60063;-76
2024/02/23 01:20:02;;;;;;;8.40;5.70;;;;;;;4.54;79.56;99350.27;106157;1257;59434;-73
2024/02/23 01:22:30;;;;;;;7.20;5.40;;;;;;;4.48;79.79;99345.54;105610;1261;73251;-75
2024/02/23 01:24:57;;;;;;;9.80;5.50;;;;;;;4.51;80.00;99345.30;105302;1257;69022;-76
2024/02/23 01:27:24;;;;;;;8.30;5.80;;;;;;;4.56;79.56;99347.90;105648;1262;73034;-73
2024/02/23 01:29:52;;;;;;;6.50;5.00;;;;;;;4.50;79.85;99340.11;106014;1260;62623;-75
2024/02/23 01:32:19;;;;;;;7.20;5.30;;;;;;;4.45;80.05;99325.71;105700;1255;60023;-75
2024/02/23 01:34:47;;;;;;;7.10;6.00;;;;;;;4.43;80.36;99332.63;105473;1261;74218;-74
2024/02/23 01:37:14;;;;;;;6.90;5.30;;;;;;;4.49;80.30;99331.05;105515;1256;70789;-73
2024/02/23 01:39:42;;;;;;;7.10;5.20;;;;;;;4.48;80.26;99332.41;105653;1257;72677;-74
2024/02/23 01:42:09;;;;;;;8.00;5.60;;;;;;;4.44;80.65;99326.66;105393;1262;60477;-73
2024/02/23 01:44:36;;;;;;;7.60;5.30;;;;;;;4.38;80.56;99326.98;105460;1257;61123;-73
2024/02/23 01:47:04;;;;;;;6.20;4.90;;;;;;;4.38;80.99;99313.20;105520;1257;73817;-75
2024/02/23 01:49:33;;;;;;;7.40;5.20;;;;;;;4.43;81.00;99341.41;105527;1261;69934;-75
2024/02/23 01:52:01;;;;;;;7.60;5.60;;;;;;;4.44;80.58;99332.77;105720;1257;72635;-75
2024/02/23 01:54:29;;;;;;;7.50;5.60;;;;;;;4.39;81.08;99325.19;105855;1263;60512;-74
2024/02/23 01:56:57;;;;;;;6.80;5.10;;;;;;;4.34;81.28;99323.86;106222;1255;60348;-75
2024/02/23 01:59:25;;;;;;;7.10;5.10;;;;;;;4.31;81.39;99329.05;107693;1257;72697;-72
2024/02/23 02:01:53;;;;;;;6.60;5.20;;;;;;;4.38;81.32;99330.89;107755;1257;68853;-73
2024/02/23 02:04:20;;;;;;;6.60;5.50;;;;;;;4.40;81.23;99333.49;106514;1262;72424;-77
2024/02/23 02:06:48;;;;;;;8.70;5.30;;;;;;;4.36;81.67;99328.45;105626;1260;60524;-75
2024/02/23 02:09:15;;;;;;;9.40;5.50;;;;;;;4.31;81.78;99326.88;105581;1262;62035;-76
2024/02/23 02:11:49;;;;;;;6.50;4.80;;;;;;;4.33;81.88;99320.40;105719;1261;73881;-77
2024/02/23 02:14:17;;;;;;;7.70;5.40;;;;;;;4.38;81.52;99326.66;105552;1261;68959;-73
2024/02/23 02:16:45;;;;;;;8.00;5.50;;;;;;;4.34;82.03;99325.24;105502;1257;74370;-76
2024/02/23 02:19:12;;;;;;;8.10;6.40;;;;;;;4.27;82.33;99331.86;105503;1257;60539;-76
2024/02/23 02:21:41;;;;;;;8.60;6.10;;;;;;;4.25;82.51;99320.81;105496;1260;60608;-73
2024/02/23 02:24:08;;;;;;;8.90;5.40;;;;;;;4.31;82.15;99318.91;105968;1262;73820;-75
2024/02/23 02:26:39;;;;;;;7.00;5.60;;;;;;;4.32;82.40;99329.12;105695;1262;70487;-76
2024/02/23 02:29:07;;;;;;;10.60;7.00;;;;;;;4.29;82.48;99312.41;105627;1263;72633;-74
2024/02/23 02:31:37;;;;;;;9.00;6.10;;;;;;;4.25;82.78;99317.27;105610;1263;60420;-74
2024/02/23 02:34:04;;;;;;;7.30;5.30;;;;;;;4.28;82.70;99320.02;105647;1262;61822;-75
2024/02/23 02:36:32;;;;;;;7.70;5.80;;;;;;;4.32;82.71;99306.45;105545;1257;73815;-73
2024/02/23 02:39:00;;;;;;;9.50;5.60;;;;;;;4.30;82.71;99310.02;105640;1260;70320;-74
2024/02/23 02:41:29;;;;;;;10.50;7.20;;;;;;;4.25;82.87;99324.50;105689;1257;72752;-77
2024/02/23 02:43:57;;;;;;;7.40;6.10;;;;;;;4.24;83.32;99312.16;105652;1256;60552;-76
2024/02/23 02:46:24;;;;;;;8.50;6.40;;;;;;;4.27;83.16;99305.44;106189;1255;60369;-76
2024/02/23 02:48:52;;;;;;;9.30;6.90;;;;;;;4.24;83.26;99325.30;106663;1257;73813;-75
2024/02/23 02:51:19;;;;;;;9.00;6.80;;;;;;;4.20;83.29;99301.83;108255;1256;68728;-75
2024/02/23 02:53:47;;;;;;;9.60;6.80;;;;;;;4.17;83.67;99304.04;108808;1257;71724;-75
2024/02/23 02:56:14;;;;;;;8.80;6.30;;;;;;;4.23;83.68;99304.34;107764;1260;60512;-74
2024/02/23 02:58:42;;;;;;;11.60;6.90;;;;;;;4.27;83.64;99304.52;105624;1263;60447;-74
2024/02/23 03:01:09;;;;;;;11.40;7.20;;;;;;;4.24;83.69;99308.48;105392;1262;71443;-76
2024/02/23 03:03:37;;;;;;;10.00;6.50;;;;;;;4.19;83.98;99306.48;105629;1260;69932;-75
2024/02/23 03:06:05;;;;;;;7.80;6.20;;;;;;;4.18;84.03;99315.14;105529;1263;71159;-76
2024/02/23 03:08:33;;;;;;;8.40;6.60;;;;;;;4.23;84.26;99306.62;105791;1262;60896;-76
2024/02/23 03:11:01;;;;;;;8.30;6.10;;;;;;;4.26;84.18;99309.36;105560;1263;60415;-76
2024/02/23 03:13:28;;;;;;;9.80;7.40;;;;;;;4.23;84.47;99305.25;105776;1257;72395;-75
2024/02/23 03:15:56;;;;;;;10.30;7.50;;;;;;;4.19;84.68;99307.53;105586;1263;69539;-75
2024/02/23 03:18:23;;;;;;;8.40;6.40;;;;;;;4.18;84.91;99317.25;105864;1262;72679;-75
2024/02/23 03:20:51;;;;;;;10.20;7.10;;;;;;;4.25;84.67;99311.36;105836;1260;60490;-77
2024/02/23 03:23:18;;;;;;;10.80;6.90;;;;;;;4.28;84.63;99303.71;105479;1262;60904;-76
2024/02/23 03:25:46;;;;;;;8.60;7.60;;;;;;;4.24;84.79;99307.55;105743;1255;72696;-72
2024/02/23 03:28:13;;;;;;;11.10;8.20;;;;;;;4.21;84.70;99309.23;105741;1260;68910;-73
2024/02/23 03:30:41;;;;;;;10.90;7.20;;;;;;;4.25;84.63;99313.80;105391;1258;72503;-73
2024/02/23 03:33:08;;;;;;;9.50;7.20;;;;;;;4.30;84.38;99323.32;105334;1258;60555;-76
2024/02/23 03:35:36;;;;;;;10.50;7.80;;;;;;;4.27;84.71;99317.50;105416;1261;60563;-75
2024/02/23 03:38:03;;;;;;;11.40;8.00;;;;;;;4.23;84.77;99305.23;105435;1258;72938;-76
2024/02/23 03:40:31;;;;;;;11.20;7.30;;;;;;;4.23;85.04;99309.98;106015;1263;70084;-73
2024/02/23 03:42:58;;;;;;;11.00;8.10;;;;;;;4.30;85.01;99313.37;105800;1261;70974;-75
2024/02/23 03:45:26;;;;;;;11.20;7.80;;;;;;;4.33;84.94;99317.29;106466;1260;60508;-75
2024/02/23 03:47:53;;;;;;;10.10;7.50;;;;;;;4.32;84.96;99319.13;108247;1257;59312;-75
2024/02/23 03:50:21;;;;;;;9.80;7.00;;;;;;;4.29;85.06;99324.98;105532;1262;73950;-74
2024/02/23 03:52:48;;;;;;;9.20;7.10;;;;;;;4.35;84.84;99320.44;105558;1263;70062;-72
2024/02/23 03:55:16;;;;;;;9.30;7.60;;;;;;;4.40;84.57;99325.22;105405;1262;72541;-74
2024/02/23 03:57:43;;;;;;;10.00;7.30;;;;;;;4.38;84.91;99321.73;105456;1263;60461;-73
2024/02/23 04:00:14;;;;;;;9.30;7.20;;;;;;;4.33;84.42;99327.95;105528;1263;60714;-74
2024/02/23 04:02:41;;;;;;;10.30;7.80;;;;;;;4.34;84.73;99324.95;105478;1263;73897;-73
2024/02/23 04:05:09;;;;;;;10.70;7.30;;;;;;;4.39;84.52;99317.10;105479;1263;69275;-77
2024/02/23 04:07:36;;;;;;;8.50;6.70;;;;;;;4.38;84.71;99317.06;105710;1261;71464;-75
2024/02/23 04:10:04;;;;;;;10.10;8.20;;;;;;;4.34;84.83;99311.63;105595;1257;60995;-74
2024/02/23 04:12:32;;;;;;;10.60;7.80;;;;;;;4.30;84.97;99315.95;105879;1263;60951;-75
2024/02/23 04:15:00;;;;;;;9.10;7.20;;;;;;;4.37;84.93;99311.52;105615;1262;75632;-76
2024/02/23 04:17:27;;;;;;;9.40;7.50;;;;;;;4.45;84.74;99308.69;105554;1264;70617;-74
2024/02/23 04:19:54;;;;;;;12.10;8.30;;;;;;;4.44;84.69;99309.14;106319;1260;71465;-72
2024/02/23 04:22:22;;;;;;;12.50;9.00;;;;;;;4.39;84.69;99316.74;105729;1263;60412;-74
2024/02/23 04:24:50;;;;;;;10.50;7.80;;;;;;;4.37;84.95;99307.61;105452;1263;60888;-74
2024/02/23 04:27:17;;;;;;;11.20;7.70;;;;;;;4.42;84.77;99310.88;105625;1256;74797;-75
2024/02/23 04:29:45;;;;;;;13.30;8.80;;;;;;;4.44;84.37;99318.45;105504;1257;70007;-75
2024/02/23 04:32:12;;;;;;;12.10;8.30;;;;;;;4.38;84.73;99310.35;105548;1261;72529;-74
2024/02/23 04:34:41;;;;;;;13.90;7.80;;;;;;;4.39;84.71;99313.92;105624;1258;60574;-74
2024/02/23 04:37:09;;;;;;;10.30;7.30;;;;;;;4.45;84.48;99317.61;106443;1257;60434;-75
2024/02/23 04:39:38;;;;;;;10.60;8.10;;;;;;;4.44;84.80;99317.88;107989;1261;74030;-75
2024/02/23 04:42:05;;;;;;;11.40;8.40;;;;;;;4.41;84.75;99317.56;106476;1258;68671;-75
2024/02/23 04:44:32;;;;;;;10.10;7.30;;;;;;;4.41;84.62;99313.82;105577;1258;71508;-73
2024/02/23 04:47:00;;;;;;;10.70;6.90;;;;;;;4.47;84.39;99326.69;105545;1263;60994;-75
2024/02/23 04:49:28;;;;;;;9.80;7.10;;;;;;;4.51;84.24;99320.59;105519;1257;61309;-78
2024/02/23 04:51:56;;;;;;;10.00;7.80;;;;;;;4.49;84.42;99312.52;105729;1257;74123;-76
2024/02/23 04:54:23;;;;;;;12.60;8.30;;;;;;;4.45;84.36;99321.46;105717;1262;69129;-76
2024/02/23 04:56:50;;;;;;;10.60;8.10;;;;;;;4.47;84.41;99330.71;105557;1262;71771;-75
2024/02/23 04:59:18;;;;;;;11.30;8.00;;;;;;;4.53;84.36;99332.11;105715;1257;60597;-76
2024/02/23 05:01:45;;;;;;;11.50;7.90;;;;;;;4.49;84.16;99339.37;105794;1260;60497;-77
2024/02/23 05:04:13;;;;;;;11.50;7.90;;;;;;;4.42;84.57;99332.78;105524;1261;72069;-77
2024/02/23 05:06:42;;;;;;;10.60;7.70;;;;;;;4.37;84.74;99329.57;106277;1260;70167;-74
2024/02/23 05:09:10;;;;;;;10.00;7.00;;;;;;;4.44;84.73;99333.82;105954;1263;72648;-76
2024/02/23 05:11:38;;;;;;;10.20;7.00;;;;;;;4.49;84.45;99340.75;105539;1257;60514;-76
2024/02/23 05:14:05;;;;;;;11.30;7.70;;;;;;;4.45;84.79;99349.68;105617;1261;60581;-78
2024/02/23 05:16:33;;;;;;;12.60;8.20;;;;;;;4.38;84.75;99349.09;105515;1257;75819;-77
2024/02/23 05:19:01;;;;;;;11.00;7.20;;;;;;;4.40;85.10;99339.31;105497;1260;69928;-77
2024/02/23 05:21:28;;;;;;;10.20;7.40;;;;;;;4.47;85.10;99344.11;105679;1260;72734;-77
2024/02/23 05:23:56;;;;;;;10.40;7.60;;;;;;;4.46;84.99;99345.95;105598;1256;60466;-76
2024/02/23 05:26:23;;;;;;;10.30;8.00;;;;;;;4.40;85.18;99357.55;105501;1262;60463;-76
2024/02/23 05:28:50;;;;;;;10.00;7.20;;;;;;;4.39;85.38;99343.27;106534;1257;72954;-76
2024/02/23 05:31:18;;;;;;;10.20;7.40;;;;;;;4.46;85.39;99342.25;108599;1257;68729;-77
2024/02/23 05:33:45;;;;;;;9.50;7.00;;;;;;;4.46;85.25;99349.81;108530;1257;72528;-75
2024/02/23 05:36:16;;;;;;;9.00;6.80;;;;;;;4.42;85.48;99350.02;106624;1262;60683;-76
2024/02/23 05:38:45;;;;;;;10.60;7.50;;;;;;;4.40;85.72;99355.95;105880;1261;60011;-78
2024/02/23 05:41:13;;;;;;;9.70;7.00;;;;;;;4.46;85.54;99363.60;105733;1258;71321;-77
2024/02/23 05:43:41;;;;;;;10.40;7.50;;;;;;;4.51;85.38;99368.80;105592;1259;70453;-77
2024/02/23 05:46:08;;;;;;;10.30;7.70;;;;;;;4.49;85.34;99373.89;105613;1262;72577;-77
2024/02/23 05:48:35;;;;;;;16.20;8.90;;;;;;;4.46;85.64;99369.11;105781;1261;60550;-78
2024/02/23 05:51:03;;;;;;;11.20;7.30;;;;;;;4.46;85.89;99377.14;106264;1257;60435;-76
2024/02/23 05:53:32;;;;;;;10.10;7.80;;;;;;;4.52;85.66;99370.23;107009;1258;72576;-77
2024/02/23 05:56:00;;;;;;;12.80;8.10;;;;;;;4.56;85.39;99367.36;105801;1261;69996;-77
2024/02/23 05:58:28;;;;;;;15.90;9.00;;;;;;;4.53;85.41;99374.06;105612;1261;71471;-76
2024/02/23 06:00:55;;;;;;;10.50;7.50;;;;;;;4.49;85.71;99376.99;105843;1260;60565;-75
2024/02/23 06:03:23;;;;;;;11.50;8.20;;;;;;;4.54;85.65;99383.98;105767;1261;60435;-75
2024/02/23 06:05:50;;;;;;;13.90;9.00;;;;;;;4.60;85.69;99380.61;105176;1257;74086;-74
2024/02/23 06:08:18;;;;;;;13.20;9.50;;;;;;;4.60;85.72;99384.84;105575;1263;70623;-75
2024/02/23 06:10:45;;;;;;;12.50;8.60;;;;;;;4.56;85.68;99388.02;105212;1261;71630;-74
2024/02/23 06:13:13;;;;;;;11.40;7.70;;;;;;;4.58;85.84;99380.13;105527;1262;60822;-74
2024/02/23 06:15:40;;;;;;;13.20;8.60;;;;;;;4.63;85.53;99384.41;105578;1255;60430;-73
2024/02/23 06:18:08;;;;;;;12.50;8.80;;;;;;;4.63;85.38;99387.06;105480;1257;73571;-75
2024/02/23 06:20:35;;;;;;;12.40;9.70;;;;;;;4.59;85.80;99392.98;105465;1258;70318;-75
2024/02/23 06:23:03;;;;;;;12.50;9.40;;;;;;;4.55;85.66;99402.86;107868;1256;72946;-75
2024/02/23 06:25:31;;;;;;;15.10;8.80;;;;;;;4.59;86.07;99410.51;108525;1257;60610;-76
2024/02/23 06:27:58;;;;;;;13.10;9.00;;;;;;;4.63;85.62;99400.67;106995;1257;60587;-72
2024/02/23 06:30:26;;;;;;;10.70;8.70;;;;;;;4.60;85.62;99388.30;106866;1261;72655;-72
2024/02/23 06:32:53;;;;;;;12.00;8.80;;;;;;;4.60;85.45;99395.23;105650;1256;70196;-74
2024/02/23 06:35:21;;;;;;;12.00;9.30;;;;;;;4.64;85.45;99392.86;105556;1260;71410;-74
2024/02/23 06:37:49;;;;;;;11.60;10.10;;;;;;;4.69;84.96;99391.04;105698;1257;60477;-74
2024/02/23 06:40:18;;;;;;;12.70;9.20;;;;;;;4.65;85.09;99388.77;105485;1260;62050;-75
2024/02/23 06:42:46;;;;;;;12.40;8.80;;;;;;;4.60;85.39;99403.13;105456;1257;73865;-74
2024/02/23 06:45:14;;;;;;;14.70;10.00;;;;;;;4.65;85.23;99394.20;105573;1258;69208;-75
2024/02/23 06:47:42;;;;;;;17.20;10.30;;;;;;;4.66;84.96;99376.77;105664;1257;75032;-74
2024/02/23 06:50:10;;;;;;;14.60;10.70;;;;;;;4.63;85.22;99400.73;105770;1257;60568;-74
2024/02/23 06:52:38;;;;;;;12.30;9.00;;;;;;;4.63;85.14;99394.95;105900;1260;60521;-74
2024/02/23 06:55:06;;;;;;;13.30;9.70;;;;;;;4.70;85.17;99392.28;106101;1263;73823;-73
2024/02/23 06:57:34;;;;;;;18.10;11.50;;;;;;;4.73;84.83;99392.75;106498;1258;70358;-74
2024/02/23 07:00:02;;;;;;;15.50;10.10;;;;;;;4.71;84.61;99393.48;105998;1260;71995;-73
2024/02/23 07:02:31;;;;;;;14.80;10.60;;;;;;;4.68;84.61;99388.10;105637;1257;61875;-73
2024/02/23 07:04:59;;;;;;;12.80;9.90;;;;;;;4.76;84.54;99388.33;105680;1257;60610;-71
2024/02/23 07:07:27;;;;;;;17.50;10.80;;;;;;;4.80;84.59;99393.34;105285;1258;74445;-72
2024/02/23 07:09:56;;;;;;;16.00;11.90;;;;;;;4.77;84.48;99405.64;105662;1257;70673;-73
2024/02/23 07:12:24;;;;;;;14.10;10.90;;;;;;;4.72;84.41;99425.88;105695;1261;73639;-73
2024/02/23 07:14:52;;;;;;;13.90;9.60;;;;;;;4.75;84.41;99414.91;105590;1257;60522;-72
2024/02/23 07:17:20;;;;;;;12.10;9.70;;;;;;;4.80;84.13;99421.42;107142;1256;60479;-71
2024/02/23 07:19:48;;;;;;;14.50;11.20;;;;;;;4.79;84.11;99422.27;106903;1261;74948;-74
2024/02/23 07:22:17;;;;;;;13.80;10.50;;;;;;;4.74;84.28;99424.97;105687;1256;72503;-72
2024/02/23 07:24:45;;;;;;;11.60;9.60;;;;;;;4.76;84.25;99416.41;106107;1263;74887;-72
2024/02/23 07:27:12;;;;;;;14.80;10.20;;;;;;;4.86;84.30;99405.14;105573;1257;60366;-73
2024/02/23 07:29:40;;;;;;;14.50;11.00;;;;;;;4.88;83.95;99420.66;105565;1260;60643;-74
2024/02/23 07:32:07;;;;;;;13.50;10.00;;;;;;;4.85;84.03;99428.15;105795;1260;72760;-74
2024/02/23 07:34:35;;;;;;;14.00;10.30;;;;;;;4.85;83.84;99436.77;105803;1257;73601;-73
2024/02/23 07:37:03;;;;;;;12.10;9.50;;;;;;;4.93;83.78;99435.23;106032;1257;71328;-72
2024/02/23 07:39:31;;;;;;;13.30;9.40;;;;;;;4.92;83.61;99445.12;105911;1257;62062;-75
2024/02/23 07:41:59;;;;;;;14.80;10.70;;;;;;;4.87;83.56;99430.80;105791;1256;60531;-73
2024/02/23 07:44:37;;;;;;;14.10;9.30;;;;;;;4.88;83.53;99438.08;105565;1257;76166;-73
2024/02/23 07:47:05;;;;;;;12.70;9.50;;;;;;;4.95;83.71;99432.91;105330;1257;70519;-73
2024/02/23 07:49:32;;;;;;;11.80;9.80;;;;;;;4.98;83.69;99427.40;105400;1258;73098;-73
2024/02/23 07:52:00;;;;;;;18.50;10.90;;;;;;;4.92;83.52;99428.23;106221;1257;60441;-73
2024/02/23 07:54:28;;;;;;;12.40;9.80;;;;;;;4.88;83.92;99439.09;105649;1256;60608;-73
2024/02/23 07:56:57;;;;;;;11.70;8.80;;;;;;;4.91;83.60;99446.58;105500;1257;74219;-74
2024/02/23 07:59:25;;;;;;;12.20;9.60;;;;;;;4.96;83.47;99456.14;105436;1260;69224;-74
2024/02/23 08:01:52;;;;;;;13.00;10.70;;;;;;;4.93;83.38;99447.41;105543;1256;72820;-74
2024/02/23 08:04:20;;;;;;;14.40;10.30;;;;;;;4.86;83.62;99455.10;105775;1259;60373;-74
2024/02/23 08:06:48;;;;;;;13.10;10.70;;;;;;;4.87;83.81;99434.60;105654;1257;60436;-75
2024/02/23 08:09:16;;;;;;;14.00;10.50;;;;;;;4.97;83.75;99443.98;106474;1257;74735;-73
2024/02/23 08:11:46;;;;;;;14.30;11.20;;;;;;;4.98;83.52;99437.91;106719;1256;69460;-73
2024/02/23 08:14:15;;;;;;;15.80;11.20;;;;;;;4.95;83.59;99444.46;106151;1257;74734;-72
2024/02/23 08:16:42;;;;;;;16.50;10.20;;;;;;;4.92;83.74;99468.45;105774;1257;60481;-72
2024/02/23 08:19:10;;;;;;;14.30;9.20;;;;;;;4.98;83.42;99448.23;105710;1261;60549;-73
2024/02/23 08:21:37;;;;;;;13.20;9.80;;;;;;;5.04;83.39;99457.95;105605;1262;76080;-72
2024/02/23 08:24:05;;;;;;;13.70;9.50;;;;;;;5.00;83.25;99460.02;105715;1257;70244;-73
2024/02/23 08:26:33;;;;;;;12.40;8.90;;;;;;;4.96;83.43;99453.01;105613;1257;74981;-76
2024/02/23 08:29:01;;;;;;;12.50;9.90;;;;;;;4.96;83.54;99474.79;105624;1257;60228;-74
2024/02/23 08:31:28;;;;;;;14.70;10.10;;;;;;;5.04;83.40;99461.60;105772;1257;61759;-73
2024/02/23 08:33:56;;;;;;;12.90;10.30;;;;;;;5.05;83.22;99462.56;105458;1258;74313;-74
2024/02/23 08:36:23;;;;;;;15.10;9.40;;;;;;;5.02;83.44;99454.77;105604;1257;72687;-73
2024/02/23 08:38:51;;;;;;;14.60;10.40;;;;;;;5.01;83.48;99468.19;105555;1257;73639;-73
2024/02/23 08:41:18;;;;;;;14.60;10.50;;;;;;;5.06;83.35;99470.70;105280;1257;60652;-74
2024/02/23 08:43:46;;;;;;;14.10;9.90;;;;;;;5.08;83.20;99475.95;105925;1257;61949;-73
2024/02/23 08:46:14;;;;;;;13.70;10.80;;;;;;;5.03;83.36;99473.79;105977;1261;74025;-73
2024/02/23 08:48:41;;;;;;;14.80;10.00;;;;;;;5.00;83.43;99475.85;105579;1257;68837;-73
2024/02/23 08:51:09;;;;;;;14.60;10.90;;;;;;;5.05;83.54;99483.08;105658;1257;73930;-73
2024/02/23 08:53:37;;;;;;;13.70;10.10;;;;;;;5.04;83.41;99466.17;105383;1256;60945;-76
2024/02/23 08:56:06;;;;;;;15.10;10.90;;;;;;;5.00;83.84;99472.10;105767;1256;60392;-74
2024/02/23 08:58:34;;;;;;;12.80;10.00;;;;;;;5.08;83.74;99465.20;105746;1260;73725;-74
2024/02/23 09:01:04;;;;;;;12.00;10.00;;;;;;;5.15;83.80;99469.02;105867;1257;70510;-74
2024/02/23 09:03:31;;;;;;;15.00;10.60;;;;;;;5.14;83.65;99493.11;107530;1256;71768;-75
2024/02/23 09:05:59;;;;;;;12.40;10.00;;;;;;;5.12;83.65;99496.98;106956;1257;60685;-73
2024/02/23 09:08:27;;;;;;;15.30;10.10;;;;;;;5.13;83.61;99488.11;105573;1256;62183;-73
2024/02/23 09:10:54;;;;;;;13.00;11.00;;;;;;;5.18;83.37;99485.90;105797;1256;73406;-74
2024/02/23 09:13:22;;;;;;;14.40;10.60;;;;;;;5.16;83.61;99488.92;106444;1257;70887;-76
2024/02/23 09:15:49;;;;;;;15.00;11.30;;;;;;;5.12;83.98;99491.77;105535;1256;74289;-73
2024/02/23 09:18:18;;;;;;;16.20;11.30;;;;;;;5.11;84.20;99497.23;105535;1262;60993;-74
2024/02/23 09:20:45;;;;;;;13.80;11.20;;;;;;;5.19;84.20;99485.11;105516;1257;62036;-73
2024/02/23 09:23:14;;;;;;;16.80;12.00;;;;;;;5.22;84.04;99495.71;105243;1257;74125;-73
2024/02/23 09:25:41;;;;;;;16.40;11.20;;;;;;;5.18;84.02;99497.88;105223;1257;72719;-73
2024/02/23 09:28:11;;;;;;;16.20;11.50;;;;;;;5.12;84.62;99485.77;105349;1257;71014;-74
2024/02/23 09:30:39;;;;;;;16.30;11.90;;;;;;;5.16;84.43;99492.65;105375;1257;61299;-73
2024/02/23 09:33:06;;;;;;;17.30;11.80;;;;;;;5.20;84.54;99494.71;105548;1257;60552;-73
2024/02/23 09:35:34;;;;;;;15.60;12.00;;;;;;;5.18;84.73;99488.73;105242;1260;272794;-75
2024/02/23 09:40:39;;;;;;;17.40;13.40;;;;;;;5.24;84.68;99501.69;103308;1292;601184;-74
2024/02/23 09:43:08;;;;;;;17.30;12.50;;;;;;;5.24;84.85;99490.44;104834;1267;60892;-73
2024/02/23 09:45:36;;;;;;;16.40;11.60;;;;;;;5.25;84.83;99503.39;105173;1267;59340;-74
2024/02/23 09:48:04;;;;;;;16.20;11.80;;;;;;;5.32;84.73;99505.36;105024;1271;71618;-75
2024/02/23 09:50:31;;;;;;;18.50;13.40;;;;;;;5.36;84.58;99497.49;104740;1272;71317;-75
2024/02/23 09:52:59;;;;;;;15.50;11.60;;;;;;;5.32;84.65;99515.02;105253;1267;71507;-74
2024/02/23 09:55:28;;;;;;;19.60;12.50;;;;;;;5.29;84.49;99520.24;107184;1259;172309;-73
2024/02/23 09:57:56;;;;;;;17.60;12.80;;;;;;;5.35;84.69;99504.38;106282;1261;60923;-74
2024/02/23 10:00:24;;;;;;;18.80;13.80;;;;;;;5.41;84.77;99499.12;105472;1265;72362;-75
2024/02/23 10:02:51;;;;;;;16.50;13.30;;;;;;;5.40;84.57;99504.67;105114;1265;71490;-75
2024/02/23 10:05:19;;;;;;;18.00;12.80;;;;;;;5.37;84.55;99498.77;105841;1260;71472;-75
2024/02/23 10:07:46;;;;;;;16.30;12.20;;;;;;;5.40;84.77;99500.11;106113;1264;61803;-74
2024/02/23 10:10:14;;;;;;;18.40;13.30;;;;;;;5.44;84.56;99502.17;105529;1261;59783;-73
2024/02/23 10:12:42;;;;;;;16.40;13.00;;;;;;;5.44;84.53;99488.81;105987;1254;72500;-75
2024/02/23 10:15:10;;;;;;;19.00;14.30;;;;;;;5.43;84.79;99488.20;105988;1254;71875;-74
2024/02/23 10:17:38;;;;;;;18.20;13.00;;;;;;;5.44;84.79;99505.54;105960;1260;73740;-75
2024/02/23 10:20:06;;;;;;;15.30;11.80;;;;;;;5.51;84.58;99494.89;106113;1257;61138;-74
2024/02/23 10:22:35;;;;;;;17.60;13.40;;;;;;;5.58;84.53;99491.63;105827;1254;62144;-74
2024/02/23 10:25:02;;;;;;;16.50;12.80;;;;;;;5.60;84.75;99500.02;105583;1262;75058;-74
2024/02/23 10:27:30;;;;;;;16.00;13.10;;;;;;;5.59;84.52;99496.94;105457;1254;70631;-75
2024/02/23 10:29:57;;;;;;;17.00;12.90;;;;;;;5.59;84.74;99501.33;105819;1254;73621;-73
2024/02/23 10:32:25;;;;;;;19.00;14.60;;;;;;;5.66;84.71;99507.66;106415;1254;62093;-74
2024/02/23 10:34:53;;;;;;;17.80;12.60;;;;;;;5.67;84.74;99506.69;105914;1254;60248;-74
2024/02/23 10:37:22;;;;;;;17.70;12.90;;;;;;;5.65;84.77;99506.19;105854;1259;73267;-74
2024/02/23 10:39:50;;;;;;;17.50;12.20;;;;;;;5.68;84.92;99491.70;105957;1254;69228;-74
2024/02/23 10:42:20;;;;;;;16.50;12.50;;;;;;;5.78;84.96;99496.75;105525;1259;73033;-73
2024/02/23 10:44:47;;;;;;;20.00;13.90;;;;;;;5.82;84.64;99498.70;106816;1254;61202;-74
2024/02/23 10:47:15;;;;;;;19.00;14.30;;;;;;;5.81;84.60;99494.55;106572;1254;61035;-73
2024/02/23 10:49:42;;;;;;;19.20;13.80;;;;;;;5.80;84.75;99487.64;105484;1255;75022;-73
2024/02/23 10:52:13;;;;;;;17.20;12.60;;;;;;;5.91;84.62;99485.91;105788;1259;71852;-74
2024/02/23 10:54:40;;;;;;;17.60;13.00;;;;;;;5.98;84.34;99497.80;105629;1254;74693;-75
2024/02/23 10:57:08;;;;;;;18.50;13.80;;;;;;;5.97;84.53;99491.83;105853;1255;61039;-72
2024/02/23 10:59:35;;;;;;;19.80;14.00;;;;;;;5.94;84.51;99503.70;106171;1259;60042;-72
2024/02/23 11:02:03;;;;;;;17.00;12.70;;;;;;;5.99;84.72;99497.30;105737;1259;74136;-74
2024/02/23 11:04:31;;;;;;;19.60;13.20;;;;;;;6.09;84.65;99493.52;105866;1259;71062;-74
2024/02/23 11:07:04;;;;;;;18.50;12.70;;;;;;;6.10;84.54;99512.41;105826;1254;71523;-77
2024/02/23 11:09:32;;;;;;;17.80;13.50;;;;;;;6.07;84.52;99493.55;105703;1259;59746;-74
2024/02/23 11:12:04;;;;;;;16.60;13.60;;;;;;;6.06;84.84;99495.41;105921;1254;62350;-73
2024/02/23 11:14:35;;;;;;;15.60;12.40;;;;;;;6.14;84.75;99494.14;106075;1255;74049;-78
2024/02/23 11:17:03;;;;;;;19.80;14.20;;;;;;;6.22;84.52;99494.62;105856;1254;72696;-74
2024/02/23 11:19:39;;;;;;;19.30;14.80;;;;;;;6.21;84.51;99492.26;105934;1259;71399;-74
2024/02/23 11:22:10;;;;;;;18.40;13.30;;;;;;;6.19;84.80;99498.41;105766;1262;60475;-76
2024/02/23 11:24:50;;;;;;;17.50;13.60;;;;;;;6.26;84.78;99484.16;106561;1255;60192;-76
2024/02/23 11:27:22;;;;;;;18.40;14.00;;;;;;;6.34;84.42;99497.30;106111;1254;73150;-76
2024/02/23 11:30:02;;;;;;;19.70;14.20;;;;;;;6.35;84.38;99479.23;105802;1257;70205;-75